Time;durP1;ratioP1;P1;durP2;ratioP2;P2;SDS_P1;SDS_P2;PMS_P1;PMS_P2;Temp;Humidity;BMP_temperature;BMP_pressure;BME280_temperature;BME280_humidity;BME280_pressure;Samples;Min_cycle;Max_cycle;Signal;HPM_P1;HPM_P2
2022/01/21 00:00:56;;;;;;;10.67;2.13;;;0.90;99.90;;;;;;5021051;28;20233;-60
2022/01/21 00:03:23;;;;;;;12.63;2.10;;;0.90;99.90;;;;;;5005662;28;20207;-60
2022/01/21 00:05:51;;;;;;;9.27;2.30;;;0.90;99.90;;;;;;4997421;28;20233;-60
2022/01/21 00:08:18;;;;;;;8.33;2.03;;;0.90;99.90;;;;;;5016823;28;20197;-60
2022/01/21 00:10:45;;;;;;;13.77;2.50;;;1.00;99.90;;;;;;5025742;28;20631;-60
2022/01/21 00:13:20;;;;;;;8.87;1.83;;;1.00;99.90;;;;;;5023043;28;20283;-60
2022/01/21 00:15:48;;;;;;;9.73;2.07;;;1.00;99.90;;;;;;5009422;28;20202;-60
2022/01/21 00:18:17;;;;;;;8.33;2.30;;;1.00;99.90;;;;;;5010186;28;20207;-59
2022/01/21 00:31:43;;;;;;;8.47;1.93;;;1.10;99.90;;;;;;5005977;28;20410;-60
2022/01/21 00:34:11;;;;;;;8.90;2.60;;;1.10;99.90;;;;;;5003854;28;20296;-60
2022/01/21 00:36:38;;;;;;;7.83;2.10;;;1.20;99.90;;;;;;5028723;28;20710;-60
2022/01/21 00:39:05;;;;;;;10.33;2.07;;;1.20;99.90;;;;;;5006031;28;20266;-60
2022/01/21 00:41:38;;;;;;;9.10;1.63;;;1.20;99.90;;;;;;5016952;28;20676;-60
2022/01/21 00:44:05;;;;;;;12.50;2.17;;;1.30;99.90;;;;;;5016931;28;20214;-60
2022/01/21 00:46:32;;;;;;;7.10;1.70;;;1.20;99.90;;;;;;5003266;28;20289;-60
2022/01/21 00:49:01;;;;;;;7.73;1.87;;;1.20;99.90;;;;;;5030483;28;20203;-60
2022/01/21 00:51:28;;;;;;;8.13;1.97;;;1.20;99.90;;;;;;4997298;28;20239;-60
2022/01/21 00:53:55;;;;;;;9.33;1.53;;;1.20;99.90;;;;;;5001935;28;20210;-60
2022/01/21 00:56:22;;;;;;;5.40;1.67;;;1.20;99.90;;;;;;5028711;28;21013;-60
2022/01/21 00:58:49;;;;;;;10.20;1.90;;;1.10;99.90;;;;;;5013467;28;20285;-60
2022/01/21 01:01:17;;;;;;;8.77;1.63;;;1.10;99.90;;;;;;5020248;28;20329;-59
2022/01/21 01:03:44;;;;;;;7.30;2.00;;;1.10;99.90;;;;;;5009340;28;20246;-60
2022/01/21 01:06:12;;;;;;;6.77;1.57;;;1.00;99.90;;;;;;4995101;28;20982;-60
2022/01/21 01:08:39;;;;;;;5.20;1.67;;;1.00;99.90;;;;;;5008741;28;20200;-60
2022/01/21 01:11:29;;;;;;;6.00;1.50;;;1.00;99.90;;;;;;5025079;28;20664;-60
2022/01/21 01:22:17;;;;;;;5.93;1.70;;;1.10;99.90;;;;;;5005270;28;20752;-60
2022/01/21 01:27:41;;;;;;;13.80;2.43;;;1.10;99.90;;;;;;5029508;28;20221;-59
2022/01/21 01:30:11;;;;;;;6.30;1.97;;;1.10;99.90;;;;;;5016735;28;20656;-60
2022/01/21 01:32:38;;;;;;;10.17;1.80;;;1.10;99.90;;;;;;5006531;28;20206;-60
2022/01/21 01:35:07;;;;;;;5.50;1.60;;;1.20;99.90;;;;;;5028206;28;20202;-60
2022/01/21 01:37:52;;;;;;;12.53;2.10;;;1.20;99.90;;;;;;5003956;28;20227;-60
2022/01/21 01:40:24;;;;;;;4.83;1.70;;;1.20;99.90;;;;;;5007875;28;20231;-60
2022/01/21 01:51:16;;;;;;;11.03;1.83;;;1.30;99.90;;;;;;5007488;28;20244;-60
2022/01/21 01:53:48;;;;;;;13.87;2.47;;;1.30;99.90;;;;;;5022046;28;20235;-60
2022/01/21 01:56:19;;;;;;;9.47;2.30;;;1.40;99.90;;;;;;4997716;28;21386;-60
2022/01/21 01:58:46;;;;;;;14.33;2.10;;;1.50;99.90;;;;;;5018691;28;20194;-60
2022/01/21 02:01:13;;;;;;;9.30;1.60;;;1.60;99.90;;;;;;5002633;28;20219;-60
2022/01/21 02:03:40;;;;;;;15.63;2.33;;;1.70;99.90;;;;;;5018391;28;20236;-60
2022/01/21 02:06:07;;;;;;;9.37;1.73;;;1.80;99.90;;;;;;5000371;28;20261;-60
2022/01/21 02:08:34;;;;;;;15.33;2.30;;;1.80;99.90;;;;;;5022923;28;20285;-60
2022/01/21 02:11:04;;;;;;;5.77;1.60;;;1.80;99.90;;;;;;4992207;28;20233;-60
2022/01/21 02:13:34;;;;;;;6.73;1.37;;;1.90;99.90;;;;;;5023746;28;20205;-60
2022/01/21 02:16:06;;;;;;;12.70;1.80;;;1.90;99.90;;;;;;4996618;28;20315;-60
2022/01/21 02:24:15;;;;;;;9.47;1.80;;;2.00;99.90;;;;;;5018641;28;20200;-60
2022/01/21 02:26:44;;;;;;;11.10;1.70;;;2.00;99.90;;;;;;4999624;28;20295;-60
2022/01/21 02:29:11;;;;;;;9.43;1.97;;;2.00;99.90;;;;;;5019757;28;20663;-60
2022/01/21 02:31:40;;;;;;;11.33;1.57;;;2.00;99.90;;;;;;5003924;28;22430;-60
2022/01/21 02:34:09;;;;;;;10.20;2.03;;;2.10;99.90;;;;;;5015971;28;20210;-60
2022/01/21 02:36:38;;;;;;;11.37;1.97;;;2.00;99.90;;;;;;5007723;28;20210;-60
2022/01/21 02:39:06;;;;;;;6.23;1.43;;;2.00;99.90;;;;;;5024263;28;20202;-60
2022/01/21 02:41:33;;;;;;;9.73;1.70;;;2.10;99.90;;;;;;5027328;28;20198;-60
2022/01/21 02:44:00;;;;;;;6.13;1.30;;;2.00;99.90;;;;;;5019471;28;20229;-60
2022/01/21 02:46:27;;;;;;;8.20;1.53;;;2.00;99.90;;;;;;5011103;28;20222;-60
2022/01/21 02:48:54;;;;;;;9.97;1.50;;;2.00;99.90;;;;;;5024040;28;20202;-60
2022/01/21 02:51:22;;;;;;;5.33;1.43;;;2.00;99.90;;;;;;5011908;28;20254;-60
2022/01/21 02:54:05;;;;;;;6.50;2.43;;;2.00;99.90;;;;;;4996164;28;20311;-60
2022/01/21 02:56:33;;;;;;;7.83;1.50;;;2.00;99.90;;;;;;5007493;28;20258;-60
2022/01/21 02:59:00;;;;;;;8.57;1.47;;;1.90;99.90;;;;;;5020167;28;20224;-60
2022/01/21 03:01:27;;;;;;;3.17;1.10;;;2.00;99.90;;;;;;5007370;28;20233;-60
2022/01/21 03:03:55;;;;;;;5.90;1.00;;;2.00;99.90;;;;;;5013640;28;20270;-60
2022/01/21 03:06:23;;;;;;;8.27;1.57;;;2.00;99.90;;;;;;5019537;28;20237;-60
2022/01/21 03:08:54;;;;;;;4.30;1.30;;;2.10;99.90;;;;;;5006162;28;20205;-60
2022/01/21 03:11:23;;;;;;;10.97;1.20;;;2.00;99.90;;;;;;5028221;28;20225;-60
2022/01/21 03:13:50;;;;;;;5.17;1.47;;;2.00;99.90;;;;;;5012422;28;20236;-60
2022/01/21 03:16:17;;;;;;;4.13;1.23;;;2.00;99.90;;;;;;5009170;28;20201;-60
2022/01/21 03:18:47;;;;;;;8.70;1.73;;;2.00;99.90;;;;;;5014481;28;20204;-60
2022/01/21 03:21:21;;;;;;;7.13;2.00;;;1.90;99.90;;;;;;5015083;28;20275;-60
2022/01/21 03:23:50;;;;;;;12.53;1.50;;;1.90;99.90;;;;;;4996906;28;20203;-60
2022/01/21 03:26:21;;;;;;;5.10;1.20;;;1.90;99.90;;;;;;5003948;28;20514;-60
2022/01/21 03:28:49;;;;;;;5.10;1.40;;;1.90;99.90;;;;;;5018195;28;20650;-60
2022/01/21 03:31:17;;;;;;;7.27;1.30;;;1.90;99.90;;;;;;4993361;28;20260;-60
2022/01/21 03:33:45;;;;;;;4.50;1.20;;;1.80;99.90;;;;;;4996187;28;20659;-60
2022/01/21 03:36:12;;;;;;;12.40;1.57;;;1.80;99.90;;;;;;5014280;28;23277;-60
2022/01/21 03:38:40;;;;;;;8.07;1.20;;;1.70;99.90;;;;;;5024816;28;20274;-60
2022/01/21 03:41:08;;;;;;;8.00;1.83;;;1.70;99.90;;;;;;4994812;28;20213;-60
2022/01/21 03:43:36;;;;;;;8.00;1.40;;;1.70;99.90;;;;;;5018487;28;20205;-60
2022/01/21 03:46:04;;;;;;;4.30;1.13;;;1.70;99.90;;;;;;5004485;28;20695;-60
2022/01/21 03:48:33;;;;;;;8.73;1.70;;;1.70;99.90;;;;;;5024427;28;20583;-60
2022/01/21 03:51:00;;;;;;;7.87;1.63;;;1.70;99.90;;;;;;4999004;28;20237;-60
2022/01/21 03:53:27;;;;;;;5.90;1.27;;;1.60;99.90;;;;;;5011562;28;20294;-60
2022/01/21 03:55:57;;;;;;;3.57;1.47;;;1.60;99.90;;;;;;4993436;28;20209;-60
2022/01/21 03:58:24;;;;;;;3.60;1.57;;;1.60;99.90;;;;;;5015321;28;20202;-60
2022/01/21 04:00:54;;;;;;;8.37;1.77;;;1.70;99.90;;;;;;4999156;28;20298;-60
2022/01/21 04:03:23;;;;;;;9.50;1.47;;;1.70;99.90;;;;;;5028943;28;20676;-60
2022/01/21 04:05:51;;;;;;;5.77;1.63;;;1.70;99.90;;;;;;5007152;28;20251;-60
2022/01/21 04:08:18;;;;;;;5.50;1.50;;;1.70;99.90;;;;;;5005049;28;20218;-60
2022/01/21 04:10:48;;;;;;;11.43;1.97;;;1.70;99.90;;;;;;5013227;28;20229;-60
2022/01/21 04:13:18;;;;;;;10.17;2.63;;;1.70;99.90;;;;;;5005980;28;20237;-60
2022/01/21 04:15:47;;;;;;;6.50;1.97;;;1.70;99.90;;;;;;5010062;28;20257;-60
2022/01/21 04:18:16;;;;;;;6.63;1.63;;;1.80;99.90;;;;;;4997212;28;20655;-60
2022/01/21 04:20:45;;;;;;;4.87;1.03;;;1.80;99.90;;;;;;5010917;28;20984;-60
2022/01/21 04:23:16;;;;;;;4.90;1.10;;;1.80;99.90;;;;;;5007638;28;20193;-60
2022/01/21 04:25:44;;;;;;;4.70;1.17;;;1.80;99.90;;;;;;5022785;28;20198;-60
2022/01/21 04:28:11;;;;;;;3.70;1.40;;;1.80;99.90;;;;;;5003281;28;20211;-60
2022/01/21 04:30:39;;;;;;;4.37;1.40;;;1.80;99.90;;;;;;4997193;28;20229;-60
2022/01/21 04:33:07;;;;;;;6.97;1.47;;;1.80;99.90;;;;;;5006019;28;20214;-60
2022/01/21 04:35:36;;;;;;;5.37;1.47;;;1.80;99.90;;;;;;5017806;28;20210;-60
2022/01/21 04:38:07;;;;;;;6.20;1.47;;;1.80;99.90;;;;;;5016798;28;20221;-60
2022/01/21 04:48:38;;;;;;;3.90;1.03;;;1.90;99.90;;;;;;5029231;28;20227;-60
2022/01/21 04:51:18;;;;;;;8.13;1.70;;;1.90;99.90;;;;;;5036434;28;20240;-60
2022/01/21 04:53:49;;;;;;;10.60;1.43;;;2.00;99.90;;;;;;5021883;28;20216;-60
2022/01/21 04:56:16;;;;;;;10.30;2.03;;;2.00;99.90;;;;;;5033150;28;20227;-60
2022/01/21 04:58:45;;;;;;;11.27;1.40;;;2.00;99.90;;;;;;5029413;28;20215;-60
2022/01/21 05:01:13;;;;;;;12.83;1.40;;;2.00;99.90;;;;;;5022833;28;20217;-60
2022/01/21 05:03:42;;;;;;;6.07;1.57;;;2.00;99.90;;;;;;5033861;28;20200;-60
2022/01/21 05:06:10;;;;;;;6.83;1.53;;;2.00;99.90;;;;;;5017441;28;20267;-60
2022/01/21 05:08:44;;;;;;;5.33;1.20;;;1.90;99.90;;;;;;5015369;28;20232;-60
2022/01/21 05:11:13;;;;;;;6.70;1.57;;;2.00;99.90;;;;;;5043473;28;20575;-60
2022/01/21 05:13:42;;;;;;;10.23;1.53;;;2.00;99.90;;;;;;5011517;28;21699;-61
2022/01/21 05:16:28;;;;;;;5.93;1.03;;;2.00;99.90;;;;;;5011681;28;20239;-60
2022/01/21 05:18:59;;;;;;;8.63;1.50;;;2.00;99.90;;;;;;5037636;28;20224;-60
2022/01/21 05:21:30;;;;;;;8.20;1.20;;;2.00;99.90;;;;;;5023140;28;20243;-60
2022/01/21 05:23:57;;;;;;;6.43;1.30;;;2.00;99.90;;;;;;5022484;28;20213;-60
2022/01/21 05:26:25;;;;;;;1.80;0.90;;;2.00;99.90;;;;;;5041889;28;20203;-60
2022/01/21 05:28:52;;;;;;;5.70;1.37;;;2.00;99.90;;;;;;5046257;28;20296;-59
2022/01/21 05:31:22;;;;;;;4.77;1.40;;;2.00;99.90;;;;;;5027729;28;20241;-61
2022/01/21 05:33:49;;;;;;;3.17;1.07;;;2.10;99.90;;;;;;5016928;28;20321;-60
2022/01/21 05:36:16;;;;;;;4.57;1.10;;;2.10;99.90;;;;;;5021706;28;20233;-60
2022/01/21 05:38:44;;;;;;;7.67;1.57;;;2.20;99.90;;;;;;5017103;28;20276;-60
2022/01/21 05:41:12;;;;;;;4.90;1.40;;;2.30;99.90;;;;;;5010970;28;20921;-60
2022/01/21 05:43:46;;;;;;;4.43;1.37;;;2.20;99.90;;;;;;5030740;28;20243;-60
2022/01/21 05:46:23;;;;;;;3.83;1.23;;;2.30;99.90;;;;;;5006281;28;20307;-60
2022/01/21 05:48:50;;;;;;;4.77;1.20;;;2.20;99.90;;;;;;5044878;28;20654;-61
2022/01/21 05:51:17;;;;;;;4.53;1.20;;;2.30;99.90;;;;;;5015474;28;20235;-61
2022/01/21 05:53:52;;;;;;;6.77;1.80;;;2.20;99.90;;;;;;5021029;28;20213;-60
2022/01/21 05:56:24;;;;;;;7.07;1.20;;;2.20;99.90;;;;;;5022244;28;21128;-60
2022/01/21 05:58:51;;;;;;;3.83;1.30;;;2.30;99.90;;;;;;5032978;28;20202;-59
2022/01/21 06:01:21;;;;;;;12.30;1.53;;;2.30;99.90;;;;;;5009681;28;20216;-60
2022/01/21 06:03:49;;;;;;;3.83;1.17;;;2.30;99.90;;;;;;5042264;28;20217;-60
2022/01/21 06:06:16;;;;;;;3.50;0.67;;;2.30;99.90;;;;;;5017358;28;20670;-61
2022/01/21 06:08:44;;;;;;;10.23;1.60;;;2.20;99.90;;;;;;5014758;28;20224;-60
2022/01/21 06:11:12;;;;;;;2.70;0.97;;;2.20;99.90;;;;;;5012320;28;20832;-60
2022/01/21 06:13:39;;;;;;;3.00;0.97;;;2.10;99.90;;;;;;5026994;28;21681;-60
2022/01/21 06:16:06;;;;;;;7.33;1.10;;;2.10;99.90;;;;;;4994547;28;20214;-60
2022/01/21 06:18:33;;;;;;;8.70;1.37;;;2.10;99.90;;;;;;5024945;28;20731;-59
2022/01/21 06:21:00;;;;;;;5.83;1.17;;;2.20;99.90;;;;;;5005070;28;20292;-60
2022/01/21 06:23:28;;;;;;;12.30;1.60;;;2.10;99.90;;;;;;5014028;28;20233;-59
2022/01/21 06:25:54;;;;;;;5.47;1.13;;;2.10;99.90;;;;;;5002688;28;20224;-60
2022/01/21 06:28:29;;;;;;;3.83;1.87;;;2.10;99.90;;;;;;5041954;28;20222;-60
2022/01/21 06:30:56;;;;;;;5.23;1.13;;;2.10;99.90;;;;;;5026717;28;20203;-59
2022/01/21 06:33:23;;;;;;;7.37;1.00;;;2.20;99.90;;;;;;5010398;28;20209;-60
2022/01/21 06:35:51;;;;;;;7.10;1.53;;;2.20;99.90;;;;;;5039716;28;20203;-60
2022/01/21 06:38:19;;;;;;;2.73;0.90;;;2.20;99.90;;;;;;5030399;28;20695;-59
2022/01/21 06:40:46;;;;;;;4.20;1.20;;;2.20;99.90;;;;;;5014496;28;20205;-61
2022/01/21 06:43:13;;;;;;;6.97;1.27;;;2.20;99.90;;;;;;5038850;28;20209;-60
2022/01/21 06:45:43;;;;;;;4.47;1.37;;;2.10;99.90;;;;;;5029773;28;20678;-61
2022/01/21 06:48:10;;;;;;;7.50;1.40;;;2.10;99.90;;;;;;4998947;28;20303;-60
2022/01/21 06:50:40;;;;;;;4.57;1.23;;;2.10;99.90;;;;;;5040141;28;20307;-61
2022/01/21 06:53:10;;;;;;;8.53;1.20;;;2.20;99.90;;;;;;5011224;28;20707;-60
2022/01/21 06:55:38;;;;;;;3.03;0.93;;;2.10;99.90;;;;;;5014070;28;20198;-60
2022/01/21 06:58:10;;;;;;;8.30;1.60;;;2.20;99.90;;;;;;5029056;28;21030;-60
2022/01/21 07:00:37;;;;;;;5.50;1.00;;;2.20;99.90;;;;;;5043447;28;20200;-60
2022/01/21 07:03:05;;;;;;;6.17;1.70;;;2.20;99.90;;;;;;5006405;28;20209;-60
2022/01/21 07:05:32;;;;;;;5.83;1.57;;;2.20;99.90;;;;;;5034002;28;20209;-60
2022/01/21 07:08:01;;;;;;;8.63;1.37;;;2.20;99.90;;;;;;5032096;28;20729;-60
2022/01/21 07:10:29;;;;;;;3.17;1.47;;;2.30;99.90;;;;;;4998863;28;21000;-61
2022/01/21 07:12:59;;;;;;;2.50;1.07;;;2.30;99.90;;;;;;5042642;28;20323;-63
2022/01/21 07:15:26;;;;;;;4.53;1.20;;;2.30;99.90;;;;;;5001136;28;20208;-62
2022/01/21 07:17:56;;;;;;;5.63;1.40;;;2.40;99.90;;;;;;5013388;28;20597;-61
2022/01/21 07:20:25;;;;;;;4.83;1.17;;;2.40;99.90;;;;;;5028219;28;20212;-60
2022/01/21 07:22:52;;;;;;;11.07;1.57;;;2.40;99.90;;;;;;5023433;28;20205;-60
2022/01/21 07:25:22;;;;;;;7.70;1.93;;;2.30;99.90;;;;;;5019601;28;20208;-60
2022/01/21 07:27:50;;;;;;;2.97;0.97;;;2.40;99.90;;;;;;5030222;28;20307;-62
2022/01/21 07:30:18;;;;;;;9.93;1.73;;;2.40;99.90;;;;;;5028763;28;20275;-61
2022/01/21 07:32:45;;;;;;;7.33;1.33;;;2.40;99.90;;;;;;5001440;28;20231;-61
2022/01/21 07:35:14;;;;;;;3.27;1.33;;;2.40;99.90;;;;;;5006324;28;20260;-62
2022/01/21 07:37:43;;;;;;;4.83;1.27;;;2.30;99.90;;;;;;5019424;28;20222;-61
2022/01/21 07:40:12;;;;;;;3.23;1.20;;;2.40;99.90;;;;;;5004686;28;20754;-60
2022/01/21 07:42:40;;;;;;;2.90;1.20;;;2.40;99.90;;;;;;5007436;28;20217;-60
2022/01/21 07:45:07;;;;;;;6.83;1.70;;;2.40;99.90;;;;;;5018826;28;20210;-60
2022/01/21 07:47:34;;;;;;;8.80;1.90;;;2.40;99.90;;;;;;5028833;28;20221;-61
2022/01/21 07:50:01;;;;;;;5.17;1.60;;;2.50;99.90;;;;;;4999600;28;21077;-60
2022/01/21 07:52:28;;;;;;;7.63;1.63;;;2.50;99.90;;;;;;5033926;28;20253;-60
2022/01/21 07:54:56;;;;;;;6.40;1.30;;;2.40;99.90;;;;;;5010522;28;20202;-60
2022/01/21 07:57:23;;;;;;;6.27;1.23;;;2.50;99.90;;;;;;5024181;28;20209;-60
2022/01/21 07:59:51;;;;;;;3.50;0.80;;;2.40;99.90;;;;;;5030464;22;20650;-50
2022/01/21 08:02:18;;;;;;;4.17;1.10;;;2.50;99.90;;;;;;5038431;28;20273;-51
2022/01/21 08:04:46;;;;;;;7.17;1.40;;;2.50;99.90;;;;;;4988576;28;20287;-50
2022/01/21 08:07:12;;;;;;;6.27;1.50;;;2.50;99.90;;;;;;5038391;28;20317;-51
2022/01/21 08:09:39;;;;;;;6.70;1.47;;;2.60;99.90;;;;;;5012722;28;20238;-51
2022/01/21 08:12:09;;;;;;;9.43;1.43;;;2.60;99.90;;;;;;5014616;28;20538;-51
2022/01/21 08:14:36;;;;;;;13.17;1.50;;;2.60;99.90;;;;;;5031688;28;20212;-50
2022/01/21 08:17:03;;;;;;;2.20;0.97;;;2.60;99.90;;;;;;5012415;28;20294;-50
2022/01/21 08:19:30;;;;;;;10.17;1.23;;;2.60;99.90;;;;;;5025882;28;20207;-50
2022/01/21 08:21:57;;;;;;;8.17;1.50;;;2.60;99.90;;;;;;5018560;28;20222;-51
2022/01/21 08:24:23;;;;;;;6.53;1.50;;;2.50;99.90;;;;;;5024878;28;20821;-51
2022/01/21 08:26:50;;;;;;;8.27;1.37;;;2.60;99.90;;;;;;5018783;28;20276;-50
2022/01/21 08:29:18;;;;;;;10.30;1.50;;;2.50;99.90;;;;;;5026479;28;20211;-51
2022/01/21 08:31:46;;;;;;;6.70;1.53;;;2.50;99.90;;;;;;5024476;28;20273;-50
2022/01/21 08:34:13;;;;;;;13.83;1.33;;;2.50;99.90;;;;;;5019977;28;20230;-50
2022/01/21 08:36:40;;;;;;;4.80;0.90;;;2.50;99.90;;;;;;5027567;28;20291;-51
2022/01/21 08:39:08;;;;;;;4.70;1.40;;;2.50;99.90;;;;;;5025943;28;20579;-50
2022/01/21 08:41:35;;;;;;;5.87;1.70;;;2.60;99.90;;;;;;5020863;28;20280;-50
2022/01/21 08:44:02;;;;;;;7.17;1.43;;;2.50;99.90;;;;;;5023376;28;20509;-50
2022/01/21 08:46:30;;;;;;;9.73;1.87;;;2.50;99.90;;;;;;5030785;28;20205;-51
2022/01/21 08:48:57;;;;;;;5.57;1.43;;;2.60;99.90;;;;;;4990811;28;20212;-51
2022/01/21 08:51:27;;;;;;;7.20;1.30;;;2.60;99.90;;;;;;5017028;28;20291;-50
2022/01/21 08:53:55;;;;;;;6.07;1.60;;;2.70;99.90;;;;;;5025407;28;20437;-51
2022/01/21 08:56:22;;;;;;;7.97;1.67;;;2.70;99.90;;;;;;5020191;28;20439;-49
2022/01/21 08:58:49;;;;;;;3.70;1.37;;;2.70;99.90;;;;;;5028002;28;20334;-50
2022/01/21 09:01:17;;;;;;;9.93;1.83;;;2.70;99.90;;;;;;5036314;28;20300;-50
2022/01/21 09:03:46;;;;;;;4.50;1.70;;;2.70;99.90;;;;;;5025588;28;20235;-50
2022/01/21 09:06:16;;;;;;;8.63;2.43;;;2.70;99.90;;;;;;5016236;28;21545;-50
2022/01/21 09:08:45;;;;;;;6.13;1.60;;;2.70;99.90;;;;;;5020394;28;20410;-49
2022/01/21 09:11:14;;;;;;;7.53;1.20;;;2.70;99.90;;;;;;5010866;28;20599;-51
2022/01/21 09:13:42;;;;;;;6.27;1.53;;;2.80;99.90;;;;;;5030398;28;20236;-50
2022/01/21 09:16:10;;;;;;;4.67;1.60;;;2.90;99.90;;;;;;5040685;28;20468;-50
2022/01/21 09:18:46;;;;;;;7.03;1.70;;;3.00;99.90;;;;;;5014019;28;20576;-51
2022/01/21 09:21:17;;;;;;;8.73;1.93;;;3.00;99.90;;;;;;5012533;28;20347;-51
2022/01/21 09:23:47;;;;;;;10.67;1.60;;;3.10;99.90;;;;;;5036488;28;20305;-50
2022/01/21 09:26:15;;;;;;;8.27;1.60;;;3.20;99.90;;;;;;5017761;28;20329;-50
2022/01/21 09:28:42;;;;;;;10.73;1.50;;;3.20;99.90;;;;;;5032059;28;20204;-49
2022/01/21 09:31:09;;;;;;;6.27;1.40;;;3.20;99.90;;;;;;5021683;28;20207;-51
2022/01/21 09:33:36;;;;;;;9.00;1.83;;;3.30;99.90;;;;;;5032684;28;20252;-51
2022/01/21 09:36:03;;;;;;;4.97;1.30;;;3.30;99.90;;;;;;5010230;28;20219;-50
2022/01/21 09:38:31;;;;;;;8.63;1.93;;;3.40;99.90;;;;;;5022277;28;20375;-50
2022/01/21 09:40:58;;;;;;;3.97;1.57;;;3.40;99.90;;;;;;5020851;28;20227;-50
2022/01/21 09:43:25;;;;;;;3.67;1.47;;;3.40;99.90;;;;;;5018302;28;20558;-50
2022/01/21 09:45:54;;;;;;;10.47;1.60;;;3.40;99.90;;;;;;5025357;28;20283;-50
2022/01/21 09:48:24;;;;;;;4.50;1.90;;;3.50;99.90;;;;;;5013150;28;20586;-50
2022/01/21 09:50:53;;;;;;;5.30;1.87;;;3.40;99.90;;;;;;5022348;28;20213;-50
2022/01/21 09:53:25;;;;;;;3.57;1.50;;;3.50;99.90;;;;;;5018184;28;20247;-50
2022/01/21 09:55:55;;;;;;;7.17;1.77;;;3.50;99.90;;;;;;5009679;28;20213;-50
2022/01/21 09:58:23;;;;;;;9.40;1.77;;;3.60;99.90;;;;;;5029486;28;20468;-50
2022/01/21 10:00:50;;;;;;;14.60;2.10;;;3.60;99.90;;;;;;5017671;28;20227;-50
2022/01/21 10:03:19;;;;;;;5.37;1.33;;;3.60;99.90;;;;;;5034928;28;20220;-51
2022/01/21 10:05:47;;;;;;;7.43;1.73;;;3.60;99.90;;;;;;5019197;28;20277;-51
2022/01/21 10:08:15;;;;;;;7.80;1.43;;;3.60;99.90;;;;;;5015240;28;20213;-50
2022/01/21 10:10:43;;;;;;;9.00;1.63;;;3.70;99.90;;;;;;5027308;28;21046;-51
2022/01/21 10:13:15;;;;;;;4.80;1.70;;;3.70;99.90;;;;;;5029583;28;20233;-51
2022/01/21 10:15:42;;;;;;;18.47;2.23;;;3.80;99.90;;;;;;5026318;28;21331;-51
2022/01/21 10:18:13;;;;;;;7.30;2.00;;;3.80;99.90;;;;;;5042198;28;20276;-50
2022/01/21 10:21:01;;;;;;;10.13;1.97;;;3.80;99.90;;;;;;5022226;28;20291;-51
2022/01/21 10:23:29;;;;;;;11.07;1.93;;;3.80;99.90;;;;;;5024800;28;20950;-51
2022/01/21 10:26:02;;;;;;;5.17;2.13;;;3.80;99.90;;;;;;5045458;28;20307;-50
2022/01/21 10:28:30;;;;;;;5.67;2.37;;;3.80;99.90;;;;;;5011682;28;20204;-51
2022/01/21 10:31:13;;;;;;;4.67;1.60;;;3.90;99.90;;;;;;5036812;28;20553;-51
2022/01/21 10:33:45;;;;;;;6.23;2.10;;;4.00;99.90;;;;;;5030858;28;20256;-50
2022/01/21 10:36:16;;;;;;;12.03;2.03;;;4.00;99.90;;;;;;5031272;28;20219;-50
2022/01/21 10:38:45;;;;;;;6.10;2.23;;;4.00;99.90;;;;;;5042060;28;20533;-50
2022/01/21 10:41:15;;;;;;;6.60;1.97;;;4.00;99.90;;;;;;5022275;28;20638;-50
2022/01/21 10:43:45;;;;;;;8.80;1.73;;;4.10;99.90;;;;;;5015833;28;20462;-50
2022/01/21 10:46:16;;;;;;;11.33;2.90;;;4.10;99.90;;;;;;5022519;28;20475;-51
2022/01/21 10:49:02;;;;;;;13.80;2.70;;;4.10;99.90;;;;;;5036549;28;20668;-50
2022/01/21 10:51:30;;;;;;;13.73;2.60;;;4.20;99.90;;;;;;5029372;28;20280;-51
2022/01/21 10:53:58;;;;;;;10.73;2.23;;;4.20;99.90;;;;;;5035908;28;20300;-50
2022/01/21 10:56:27;;;;;;;9.17;1.87;;;4.20;99.90;;;;;;5027047;28;20389;-51
2022/01/21 10:58:56;;;;;;;13.97;2.73;;;4.30;99.90;;;;;;5003790;28;20216;-50
2022/01/21 11:01:28;;;;;;;12.80;2.10;;;4.30;99.90;;;;;;5034543;28;20234;-50
2022/01/21 11:04:01;;;;;;;10.13;2.07;;;4.40;99.90;;;;;;5026638;28;20282;-51
2022/01/21 11:06:36;;;;;;;8.43;1.70;;;4.40;99.90;;;;;;5030789;28;20217;-50
2022/01/21 11:09:20;;;;;;;10.17;2.43;;;4.40;99.90;;;;;;5025090;28;20201;-50
2022/01/21 11:11:48;;;;;;;4.13;1.40;;;4.50;99.90;;;;;;5018739;28;20223;-50
2022/01/21 11:14:19;;;;;;;14.10;2.10;;;4.60;99.90;;;;;;5015725;28;20234;-50
2022/01/21 11:16:47;;;;;;;11.83;2.93;;;4.50;99.90;;;;;;5028640;28;20541;-51
2022/01/21 11:19:24;;;;;;;12.57;2.17;;;4.60;99.90;;;;;;5005632;28;20201;-51
2022/01/21 11:21:54;;;;;;;12.20;1.90;;;4.50;99.90;;;;;;5027193;28;20211;-51
2022/01/21 11:24:22;;;;;;;11.10;2.37;;;4.60;99.90;;;;;;5017524;28;20743;-51
2022/01/21 11:27:10;;;;;;;8.83;2.33;;;4.60;99.90;;;;;;5020857;28;20214;-50
2022/01/21 11:29:39;;;;;;;12.10;2.00;;;4.60;99.90;;;;;;5029719;28;20280;-50
2022/01/21 11:32:07;;;;;;;11.67;2.23;;;4.80;99.90;;;;;;5024335;28;20215;-50
2022/01/21 11:34:35;;;;;;;12.37;2.87;;;4.80;99.90;;;;;;5038541;28;20586;-50
2022/01/21 11:37:03;;;;;;;10.57;2.43;;;4.80;99.90;;;;;;5010621;28;20283;-51
2022/01/21 11:39:31;;;;;;;11.93;2.20;;;4.90;99.90;;;;;;5024902;28;20318;-50
2022/01/21 11:42:01;;;;;;;11.80;2.00;;;4.90;99.90;;;;;;5023115;28;20214;-50
2022/01/21 11:44:29;;;;;;;14.87;2.70;;;5.00;99.90;;;;;;5020976;28;20720;-51
2022/01/21 11:47:02;;;;;;;11.00;2.50;;;5.00;99.90;;;;;;5018358;28;20250;-50
2022/01/21 11:49:32;;;;;;;10.13;2.13;;;5.00;99.90;;;;;;5021437;28;20837;-50
2022/01/21 11:52:10;;;;;;;12.13;2.57;;;5.00;99.90;;;;;;5030874;28;20401;-51
2022/01/21 11:54:38;;;;;;;9.03;1.87;;;5.10;99.90;;;;;;5023350;28;20249;-56
2022/01/21 11:57:06;;;;;;;10.30;2.73;;;5.10;99.90;;;;;;4999889;28;20515;-51
2022/01/21 11:59:40;;;;;;;7.77;2.47;;;5.10;99.90;;;;;;5022932;28;20213;-51
2022/01/21 12:02:21;;;;;;;13.63;2.63;;;5.20;99.90;;;;;;5010912;28;20626;-50
2022/01/21 12:04:50;;;;;;;11.93;2.93;;;5.20;99.90;;;;;;5040005;28;20201;-51
2022/01/21 12:07:48;;;;;;;18.73;2.10;;;5.30;99.90;;;;;;5025962;28;20783;-51
2022/01/21 12:10:18;;;;;;;13.07;2.27;;;5.30;99.90;;;;;;5021379;28;20390;-51
2022/01/21 12:13:08;;;;;;;9.27;1.80;;;5.40;99.90;;;;;;5012323;28;20233;-51
2022/01/21 12:21:53;;;;;;;15.37;1.83;;;5.40;99.90;;;;;;5012540;28;20209;-50
2022/01/21 12:24:47;;;;;;;7.80;2.10;;;5.40;99.90;;;;;;5042626;28;20570;-51
2022/01/21 12:27:15;;;;;;;9.33;1.80;;;5.50;99.90;;;;;;5027583;28;20654;-51
2022/01/21 12:29:42;;;;;;;10.67;1.90;;;5.50;99.90;;;;;;5022355;28;20578;-50
2022/01/21 12:32:17;;;;;;;8.37;2.47;;;5.50;99.90;;;;;;5028398;28;20333;-50
2022/01/21 12:35:07;;;;;;;7.33;1.97;;;5.50;99.90;;;;;;5012620;28;20529;-50
2022/01/21 12:37:52;;;;;;;10.87;2.47;;;5.50;99.90;;;;;;5035988;28;20501;-50
2022/01/21 12:40:36;;;;;;;10.30;2.17;;;5.50;99.90;;;;;;5022289;28;20209;-51
2022/01/21 12:43:37;;;;;;;9.60;2.23;;;5.50;99.90;;;;;;5021752;28;20259;-50
2022/01/21 12:46:06;;;;;;;22.67;2.87;;;5.50;99.90;;;;;;5015236;28;20514;-51
2022/01/21 12:48:35;;;;;;;8.50;1.63;;;5.50;99.90;;;;;;5026603;28;20205;-50
2022/01/21 12:51:20;;;;;;;8.67;2.43;;;5.50;99.90;;;;;;5035486;28;20401;-50
2022/01/21 12:56:45;;;;;;;6.20;1.83;;;5.50;99.90;;;;;;5021417;28;20401;-50
2022/01/21 12:59:16;;;;;;;15.17;2.63;;;5.50;99.90;;;;;;5027616;28;20214;-50
2022/01/21 13:01:44;;;;;;;10.53;1.93;;;5.50;99.90;;;;;;4989699;28;20201;-50
2022/01/21 13:04:21;;;;;;;13.17;2.53;;;5.50;99.90;;;;;;5016343;28;20222;-50
2022/01/21 13:06:57;;;;;;;9.23;2.30;;;5.40;99.90;;;;;;5028023;28;20485;-51
2022/01/21 13:09:43;;;;;;;8.57;1.70;;;5.40;99.90;;;;;;5020072;28;20212;-51
2022/01/21 13:12:12;;;;;;;9.77;1.97;;;5.40;99.90;;;;;;5032266;28;20302;-50
2022/01/21 13:14:45;;;;;;;12.33;1.73;;;5.40;99.90;;;;;;5026386;28;20619;-50
2022/01/21 13:17:15;;;;;;;18.43;2.20;;;5.40;99.90;;;;;;5017509;28;20696;-51
2022/01/21 13:19:51;;;;;;;6.53;2.07;;;5.40;99.90;;;;;;5021040;28;20457;-51
2022/01/21 13:22:22;;;;;;;14.77;2.70;;;5.40;99.90;;;;;;5017966;28;25149;-50
2022/01/21 13:24:58;;;;;;;14.47;2.13;;;5.40;99.90;;;;;;5013006;28;20248;-51
2022/01/21 13:27:26;;;;;;;13.43;2.40;;;5.50;99.90;;;;;;5034494;28;20210;-51
2022/01/21 13:29:58;;;;;;;10.63;2.00;;;5.50;99.90;;;;;;5023247;28;20743;-51
2022/01/21 13:32:26;;;;;;;13.13;2.37;;;5.50;99.90;;;;;;5019366;28;25802;-50
2022/01/21 13:34:53;;;;;;;15.77;2.33;;;5.50;99.90;;;;;;5024310;28;20796;-54
2022/01/21 13:37:21;;;;;;;13.90;2.30;;;5.50;99.90;;;;;;5020603;28;20579;-50
2022/01/21 13:39:49;;;;;;;11.40;2.07;;;5.50;99.90;;;;;;5018459;28;20216;-51
2022/01/21 13:42:20;;;;;;;11.00;2.10;;;5.50;99.90;;;;;;5023043;28;20229;-50
2022/01/21 13:44:49;;;;;;;12.37;2.60;;;5.60;99.90;;;;;;5021724;28;20324;-50
2022/01/21 13:47:34;;;;;;;14.00;2.33;;;5.60;99.90;;;;;;5006658;28;20449;-51
2022/01/21 13:50:06;;;;;;;12.13;1.87;;;5.60;99.90;;;;;;5029057;28;20209;-51
2022/01/21 13:52:40;;;;;;;8.10;1.83;;;5.60;99.90;;;;;;5014359;28;20646;-50
2022/01/21 13:55:10;;;;;;;9.33;1.90;;;5.60;99.90;;;;;;5025735;28;20227;-51
2022/01/21 13:57:44;;;;;;;5.60;1.67;;;5.60;99.90;;;;;;5018824;28;20232;-50
2022/01/21 14:00:13;;;;;;;10.77;2.67;;;5.60;99.90;;;;;;5022790;28;20315;-51